createdAt,value
2022-08-07T00:00:55.251Z,45.60
2022-08-07T00:03:50.231Z,45.38
2022-08-07T00:06:51.929Z,45.52
2022-08-07T00:09:50.196Z,45.27
2022-08-07T00:13:00.748Z,45.15
2022-08-07T00:15:53.994Z,45.01
2022-08-07T00:18:45.610Z,44.78
2022-08-07T00:21:57.362Z,44.70
2022-08-07T00:24:47.404Z,44.50
2022-08-07T00:27:53.774Z,44.54
2022-08-07T00:30:47.256Z,44.55
2022-08-07T00:33:38.869Z,44.54
2022-08-07T00:36:33.011Z,44.44
2022-08-07T00:39:23.997Z,44.51
2022-08-07T00:42:14.416Z,44.50
2022-08-07T00:45:16.089Z,44.97
2022-08-07T00:48:10.412Z,45.09
2022-08-07T00:51:02.936Z,45.19
2022-08-07T00:53:55.359Z,45.28
2022-08-07T00:56:47.341Z,44.71
2022-08-07T00:59:41.622Z,44.70
2022-08-07T01:02:31.994Z,44.55
2022-08-07T01:05:24.728Z,44.25
2022-08-07T01:08:17.215Z,44.23
2022-08-07T01:12:04.266Z,44.04
2022-08-07T01:14:28.786Z,44.25
2022-08-07T01:17:20.559Z,43.94
2022-08-07T01:20:16.673Z,43.79
2022-08-07T01:23:12.226Z,43.88
2022-08-07T01:26:07.158Z,44.05
2022-08-07T01:29:09.197Z,43.82
2022-08-07T01:32:00.974Z,44.00
2022-08-07T01:34:57.421Z,43.92
2022-08-07T01:37:48.666Z,43.97
2022-08-07T01:40:41.875Z,43.92
2022-08-07T01:43:34.650Z,43.99
2022-08-07T01:46:31.288Z,43.76
2022-08-07T01:49:22.353Z,44.06
2022-08-07T01:52:15.375Z,44.05
2022-08-07T01:55:08.507Z,43.86
2022-08-07T01:58:27.151Z,44.04
2022-08-07T02:01:58.829Z,44.12
2022-08-07T02:04:55.895Z,43.89
2022-08-07T02:07:53.815Z,43.98
2022-08-07T02:10:58.691Z,44.15
2022-08-07T02:13:57.551Z,44.31
2022-08-07T02:16:53.036Z,44.30
2022-08-07T02:20:05.280Z,44.23
2022-08-07T02:23:01.903Z,44.21
2022-08-07T02:26:32.023Z,44.45
2022-08-07T02:29:13.685Z,44.38
2022-08-07T02:32:10.854Z,44.63
2022-08-07T02:35:06.152Z,44.51
2022-08-07T02:38:04.225Z,44.51
2022-08-07T02:40:56.342Z,44.49
2022-08-07T02:43:49.113Z,44.39
2022-08-07T02:46:46.672Z,44.50
2022-08-07T02:49:58.549Z,44.37
2022-08-07T02:53:00.881Z,44.42
2022-08-07T02:56:04.136Z,44.29
2022-08-07T02:59:01.955Z,44.43
2022-08-07T03:01:55.379Z,44.46
2022-08-07T03:04:48.607Z,44.44
2022-08-07T03:07:58.840Z,44.53
2022-08-07T03:10:54.381Z,44.47
2022-08-07T03:13:57.685Z,44.26
2022-08-07T03:16:53.368Z,44.32
2022-08-07T03:19:45.098Z,44.33
2022-08-07T03:22:50.212Z,44.29
2022-08-07T03:25:44.276Z,44.23
2022-08-07T03:28:43.461Z,44.06
2022-08-07T03:31:43.200Z,43.75
2022-08-07T03:34:39.341Z,43.72
2022-08-07T03:37:32.557Z,43.79
2022-08-07T03:40:35.961Z,43.71
2022-08-07T03:43:32.915Z,43.65
2022-08-07T03:46:25.059Z,43.83
2022-08-07T03:49:18.331Z,43.81
2022-08-07T03:52:15.939Z,43.41
2022-08-07T03:55:19.351Z,43.66
2022-08-07T03:59:04.903Z,43.53
2022-08-07T04:01:22.950Z,43.63
2022-08-07T04:04:17.427Z,43.78
2022-08-07T04:07:17.555Z,43.55
2022-08-07T04:10:15.503Z,43.60
2022-08-07T04:13:08.113Z,43.47
2022-08-07T04:16:06.751Z,43.59
2022-08-07T04:19:14.725Z,43.72
2022-08-07T04:22:14.435Z,43.43
2022-08-07T04:25:08.688Z,43.40
2022-08-07T04:28:06.591Z,43.44
2022-08-07T04:30:58.632Z,43.46
2022-08-07T04:33:56.654Z,43.26
2022-08-07T04:36:49.609Z,43.20
2022-08-07T04:39:47.890Z,43.13
2022-08-07T04:42:43.722Z,43.05
2022-08-07T04:45:57.609Z,43.35
2022-08-07T04:49:02.140Z,43.47
2022-08-07T04:52:06.746Z,43.19
2022-08-07T04:55:14.954Z,43.49
2022-08-07T04:58:49.700Z,43.35
2022-08-07T05:01:44.267Z,43.17
2022-08-07T05:04:47.221Z,42.91
2022-08-07T05:07:48.526Z,42.84
2022-08-07T05:10:46.680Z,42.60
2022-08-07T05:14:54.374Z,42.66
2022-08-07T05:17:00.370Z,42.91
2022-08-07T05:19:54.507Z,43.06
2022-08-07T05:22:49.346Z,43.12
2022-08-07T05:26:13.221Z,43.04
2022-08-07T05:29:00.266Z,42.78
2022-08-07T05:32:00.961Z,42.60
2022-08-07T05:34:58.472Z,42.36
2022-08-07T05:38:09.116Z,42.45
2022-08-07T05:41:01.866Z,41.97
2022-08-07T05:44:12.212Z,41.41
2022-08-07T05:47:18.263Z,41.57
2022-08-07T05:50:16.315Z,41.18
2022-08-07T05:53:07.265Z,41.38
2022-08-07T05:56:20.411Z,41.21
2022-08-07T05:59:22.794Z,41.35
2022-08-07T06:02:28.922Z,41.05
2022-08-07T06:05:26.001Z,40.63
2022-08-07T06:08:30.123Z,40.43
2022-08-07T06:11:22.527Z,39.17
2022-08-07T06:14:20.864Z,39.70
2022-08-07T06:17:15.865Z,39.48
2022-08-07T06:20:12.735Z,39.53
2022-08-07T06:23:45.931Z,38.75
2022-08-07T06:26:30.250Z,39.40
2022-08-07T06:29:21.534Z,39.39
2022-08-07T06:32:14.974Z,39.62
2022-08-07T06:35:17.795Z,39.58
2022-08-07T06:38:10.180Z,39.71
2022-08-07T06:41:14.021Z,39.52
2022-08-07T06:44:10.854Z,39.10
2022-08-07T06:47:10.588Z,39.09
2022-08-07T06:50:06.666Z,38.93
2022-08-07T06:53:04.112Z,38.90
2022-08-07T06:56:01.989Z,38.54
2022-08-07T07:00:14.656Z,38.78
2022-08-07T07:02:48.086Z,38.66
2022-08-07T07:06:03.307Z,38.65
2022-08-07T07:08:46.731Z,38.42
2022-08-07T07:12:07.442Z,38.22
2022-08-07T07:14:57.649Z,37.23
2022-08-07T07:17:54.457Z,37.00
2022-08-07T07:20:54.851Z,36.23
2022-08-07T07:24:10.219Z,36.06
2022-08-07T07:26:58.172Z,36.51
2022-08-07T07:30:08.772Z,36.74
2022-08-07T07:33:02.455Z,35.79
2022-08-07T07:36:05.398Z,36.15
2022-08-07T07:39:04.395Z,36.06
2022-08-07T07:42:13.300Z,35.15
2022-08-07T07:45:08.735Z,35.57
2022-08-07T07:48:04.057Z,36.03
2022-08-07T07:50:56.311Z,35.78
2022-08-07T07:53:52.222Z,35.64
2022-08-07T07:56:45.068Z,35.27
2022-08-07T07:59:52.498Z,35.06
2022-08-07T08:03:00.925Z,34.49
2022-08-07T08:05:56.176Z,34.54
2022-08-07T08:08:48.308Z,35.05
2022-08-07T08:12:00.102Z,34.97
2022-08-07T08:14:49.502Z,34.59
2022-08-07T08:17:57.990Z,33.99
2022-08-07T08:20:51.094Z,34.53
2022-08-07T08:24:01.815Z,34.03
2022-08-07T08:27:09.509Z,33.44
2022-08-07T08:30:03.915Z,34.25
2022-08-07T08:32:58.676Z,34.16
2022-08-07T08:35:52.615Z,33.93
2022-08-07T08:38:46.826Z,34.15
2022-08-07T08:41:58.484Z,33.71
2022-08-07T08:44:55.851Z,33.50
2022-08-07T08:47:58.304Z,33.02
2022-08-07T08:50:58.158Z,33.31
2022-08-07T08:54:02.452Z,32.88
2022-08-07T08:56:54.684Z,33.22
2022-08-07T08:59:53.634Z,33.05
2022-08-07T09:02:53.979Z,32.84
2022-08-07T09:05:54.578Z,32.78
2022-08-07T09:08:58.104Z,32.69
2022-08-07T09:12:08.963Z,32.78
2022-08-07T09:16:24.457Z,32.57
2022-08-07T09:18:58.578Z,32.18
2022-08-07T09:22:22.424Z,31.71
2022-08-07T09:25:17.832Z,31.33
2022-08-07T09:30:00.606Z,31.55
2022-08-07T09:31:27.475Z,31.43
2022-08-07T09:34:38.495Z,31.09
2022-08-07T09:37:53.512Z,30.45
2022-08-07T09:41:00.384Z,29.94
2022-08-07T09:44:06.749Z,30.94
2022-08-07T09:47:42.629Z,30.59
2022-08-07T09:50:32.088Z,30.67
2022-08-07T09:53:26.089Z,30.35
2022-08-07T09:57:00.740Z,30.47
2022-08-07T10:00:14.422Z,30.21
2022-08-07T10:04:04.752Z,30.21
2022-08-07T10:07:39.854Z,30.04
2022-08-07T10:11:07.796Z,28.96
2022-08-07T10:14:02.539Z,29.07
2022-08-07T10:17:14.375Z,29.49
2022-08-07T10:20:30.522Z,29.55
2022-08-07T10:24:06.227Z,29.38
2022-08-07T10:27:12.992Z,29.07
2022-08-07T10:30:12.351Z,28.91
2022-08-07T10:34:05.707Z,28.62
2022-08-07T10:36:53.230Z,28.06
2022-08-07T10:40:05.627Z,28.17
2022-08-07T10:43:08.907Z,28.10
2022-08-07T10:46:03.279Z,27.66
2022-08-07T10:49:04.688Z,27.50
2022-08-07T10:52:12.934Z,27.54
2022-08-07T10:55:26.937Z,27.39
2022-08-07T10:58:47.656Z,27.18
2022-08-07T11:02:05.448Z,27.28
2022-08-07T11:05:49.283Z,26.57
2022-08-07T11:08:45.255Z,27.08
2022-08-07T11:11:41.900Z,26.96
2022-08-07T11:14:45.853Z,26.79
2022-08-07T11:17:54.162Z,26.81
2022-08-07T11:20:51.315Z,26.71
2022-08-07T11:23:54.516Z,26.63
2022-08-07T11:26:50.416Z,26.52
2022-08-07T11:29:53.891Z,26.31
2022-08-07T11:33:07.932Z,26.47
2022-08-07T11:36:25.266Z,26.36
2022-08-07T11:39:58.834Z,26.30
2022-08-07T11:42:59.849Z,26.32
2022-08-07T11:46:23.408Z,25.99
2022-08-07T11:50:18.730Z,26.17
2022-08-07T11:53:15.726Z,25.88
2022-08-07T11:56:29.723Z,26.06
2022-08-07T12:00:11.550Z,26.24
2022-08-07T12:03:44.998Z,25.69
2022-08-07T12:06:56.324Z,25.85
2022-08-07T12:09:58.495Z,25.94
2022-08-07T12:13:00.989Z,25.71
2022-08-07T12:16:07.034Z,25.64
2022-08-07T12:19:14.660Z,25.54
2022-08-07T12:22:37.239Z,25.45
2022-08-07T12:26:21.931Z,25.84
2022-08-07T12:29:13.908Z,25.76
2022-08-07T12:32:13.297Z,25.60
2022-08-07T12:35:07.373Z,25.48
2022-08-07T12:38:09.313Z,25.46
2022-08-07T12:41:04.082Z,25.41
2022-08-07T12:44:05.621Z,25.81
2022-08-07T12:47:21.502Z,25.65
2022-08-07T12:50:33.994Z,25.66
2022-08-07T12:54:23.999Z,25.71
2022-08-07T12:56:50.952Z,26.31
2022-08-07T12:59:54.354Z,26.53
2022-08-07T13:03:06.812Z,26.57
2022-08-07T13:06:16.888Z,26.77
2022-08-07T13:10:19.879Z,27.09
2022-08-07T13:12:39.111Z,27.32
2022-08-07T13:15:38.633Z,27.70
2022-08-07T13:18:44.648Z,28.12
2022-08-07T13:21:54.997Z,28.28
2022-08-07T13:24:59.158Z,28.35
2022-08-07T13:28:11.617Z,28.45
2022-08-07T13:31:14.129Z,28.87
2022-08-07T13:34:33.089Z,29.04
2022-08-07T13:37:33.725Z,28.99
2022-08-07T13:40:41.708Z,29.22
2022-08-07T13:43:36.900Z,29.82
2022-08-07T13:46:36.553Z,30.13
2022-08-07T13:50:33.595Z,30.35
2022-08-07T13:52:47.152Z,30.39
2022-08-07T13:55:40.301Z,30.47
2022-08-07T13:59:05.811Z,31.00
2022-08-07T14:02:10.232Z,30.87
2022-08-07T14:05:05.591Z,31.42
2022-08-07T14:08:01.476Z,31.41
2022-08-07T14:11:01.759Z,31.32
2022-08-07T14:14:10.468Z,31.53
2022-08-07T14:17:32.133Z,31.44
2022-08-07T14:20:40.817Z,31.63
2022-08-07T14:24:00.335Z,31.78
2022-08-07T14:26:53.531Z,31.83
2022-08-07T14:30:07.836Z,31.91
2022-08-07T14:33:04.666Z,31.64
2022-08-07T14:35:59.991Z,31.63
2022-08-07T14:38:55.892Z,31.66
2022-08-07T14:42:20.069Z,31.56
2022-08-07T14:45:21.584Z,31.23
2022-08-07T14:52:03.778Z,31.25
2022-08-07T14:54:44.113Z,31.20
2022-08-07T14:57:54.834Z,31.45
2022-08-07T15:00:54.289Z,33.75
2022-08-07T15:03:51.488Z,34.56
2022-08-07T15:06:47.607Z,35.66
2022-08-07T15:09:58.408Z,36.38
2022-08-07T15:12:54.937Z,35.37
2022-08-07T15:15:53.701Z,34.21
2022-08-07T15:18:47.596Z,33.82
2022-08-07T15:22:04.178Z,34.35
2022-08-07T15:34:50.548Z,35.62
2022-08-07T15:38:18.287Z,35.80
2022-08-07T15:41:23.027Z,35.80
2022-08-07T15:44:11.495Z,36.46
2022-08-07T15:47:08.640Z,36.61
2022-08-07T15:50:04.019Z,36.88
2022-08-07T15:53:04.935Z,36.87
2022-08-07T15:56:02.944Z,37.48
2022-08-07T15:59:00.858Z,38.05
2022-08-07T16:02:02.086Z,38.69
2022-08-07T16:05:00.953Z,38.75
2022-08-07T16:08:33.393Z,38.62
2022-08-07T16:11:27.013Z,38.34
2022-08-07T16:14:30.149Z,38.74
2022-08-07T16:18:01.889Z,39.18
2022-08-07T16:21:56.838Z,40.54
2022-08-07T16:24:34.603Z,38.36
2022-08-07T16:27:40.033Z,38.99
2022-08-07T16:30:36.472Z,38.83
2022-08-07T16:34:02.679Z,38.56
2022-08-07T16:38:06.500Z,38.34
2022-08-07T16:40:35.871Z,37.63
2022-08-07T16:44:03.930Z,37.20
2022-08-07T16:51:13.445Z,36.97
2022-08-07T16:54:34.536Z,36.50
2022-08-07T16:58:01.912Z,36.85
2022-08-07T17:01:15.958Z,37.51
2022-08-07T17:04:14.948Z,37.85
2022-08-07T17:07:28.419Z,38.06
2022-08-07T17:10:54.534Z,37.88
2022-08-07T17:14:18.033Z,37.34
2022-08-07T17:17:21.556Z,37.10
2022-08-07T17:20:21.678Z,36.89
2022-08-07T17:23:41.863Z,36.84
2022-08-07T17:26:48.236Z,36.82
2022-08-07T17:30:15.686Z,36.73
2022-08-07T17:34:08.524Z,36.84
2022-08-07T17:36:32.415Z,36.93
2022-08-07T17:39:53.188Z,36.83
2022-08-07T17:43:02.295Z,36.97
2022-08-07T17:46:20.998Z,37.00
2022-08-07T17:49:30.076Z,36.90
2022-08-07T17:52:32.437Z,36.49
2022-08-07T17:55:54.778Z,36.30
2022-08-07T17:58:51.428Z,34.38
2022-08-07T18:01:48.988Z,33.90
2022-08-07T18:04:50.316Z,34.12
2022-08-07T18:07:46.856Z,33.06
2022-08-07T18:12:08.248Z,32.22
2022-08-07T18:14:06.567Z,32.71
2022-08-07T18:17:00.692Z,32.19
2022-08-07T18:21:08.362Z,31.22
2022-08-07T18:23:41.990Z,30.74
2022-08-07T18:26:49.536Z,30.79
2022-08-07T18:30:06.129Z,31.56
2022-08-07T18:33:35.921Z,31.78
2022-08-07T18:36:39.897Z,31.94
2022-08-07T18:40:06.374Z,31.94
2022-08-07T18:43:08.245Z,31.63
2022-08-07T18:46:22.365Z,31.57
2022-08-07T18:50:31.268Z,31.70
2022-08-07T18:53:02.976Z,32.06
2022-08-07T18:56:09.484Z,30.98
2022-08-07T18:59:47.782Z,30.53
2022-08-07T19:02:42.687Z,31.05
2022-08-07T19:06:03.630Z,30.96
2022-08-07T19:09:08.971Z,31.04
2022-08-07T19:12:18.879Z,31.09
2022-08-07T19:16:03.272Z,31.19
2022-08-07T19:18:45.205Z,31.31
2022-08-07T19:21:53.593Z,31.29
2022-08-07T19:24:50.647Z,31.32
2022-08-07T19:28:30.911Z,31.29
2022-08-07T19:33:59.442Z,31.57
2022-08-07T19:36:53.493Z,31.93
2022-08-07T19:39:56.860Z,32.13
2022-08-07T19:42:50.250Z,32.37
2022-08-07T19:46:05.587Z,32.48
2022-08-07T19:49:01.608Z,32.35
2022-08-07T19:52:00.687Z,32.61
2022-08-07T19:54:56.548Z,32.45
2022-08-07T19:58:04.746Z,32.38
2022-08-07T20:01:04.093Z,31.85
2022-08-07T20:04:01.506Z,31.35
2022-08-07T20:06:54.320Z,31.38
2022-08-07T20:10:35.617Z,31.61
2022-08-07T20:13:06.172Z,31.73
2022-08-07T20:15:58.391Z,31.55
2022-08-07T20:18:50.819Z,31.46
2022-08-07T20:21:48.081Z,31.33
2022-08-07T20:24:39.591Z,31.18
2022-08-07T20:27:46.016Z,31.18
2022-08-07T20:30:39.684Z,31.14
2022-08-07T20:33:38.598Z,31.15
2022-08-07T20:36:31.896Z,31.09
2022-08-07T20:40:01.245Z,31.03
2022-08-07T20:42:39.944Z,31.08
2022-08-07T20:46:28.046Z,31.57
2022-08-07T20:49:55.100Z,31.80
2022-08-07T20:51:56.869Z,31.99
2022-08-07T20:54:53.333Z,32.33
2022-08-07T20:58:02.510Z,32.18
2022-08-07T21:01:02.297Z,32.23
2022-08-07T21:04:19.776Z,32.02
2022-08-07T21:07:14.522Z,31.97
2022-08-07T21:10:25.171Z,31.88
2022-08-07T21:13:24.535Z,31.81
2022-08-07T21:16:37.763Z,31.74
2022-08-07T21:19:51.390Z,31.59
2022-08-07T21:22:55.724Z,31.37
2022-08-07T21:26:01.480Z,31.45
2022-08-07T21:29:00.664Z,31.19
2022-08-07T21:32:46.684Z,31.16
2022-08-07T21:35:34.671Z,31.27
2022-08-07T21:38:38.976Z,31.22
2022-08-07T21:42:00.750Z,31.07
2022-08-07T21:44:58.876Z,30.83
2022-08-07T21:47:59.886Z,30.84
2022-08-07T21:50:56.292Z,30.67
2022-08-07T21:53:53.718Z,30.61
2022-08-07T21:57:03.271Z,30.82
2022-08-07T22:00:04.811Z,30.81
2022-08-07T22:03:08.420Z,30.91
2022-08-07T22:06:07.842Z,30.77
2022-08-07T22:09:25.816Z,30.53
2022-08-07T22:12:24.663Z,30.78
2022-08-07T22:16:35.807Z,30.53
2022-08-07T22:18:34.946Z,30.81
2022-08-07T22:22:01.887Z,31.28
2022-08-07T22:24:54.336Z,31.19
2022-08-07T22:28:19.855Z,31.06
2022-08-07T22:31:08.186Z,31.33
2022-08-07T22:34:06.023Z,31.31
2022-08-07T22:37:12.696Z,31.00
2022-08-07T22:40:12.454Z,31.07
2022-08-07T22:43:09.045Z,31.38
2022-08-07T22:47:02.301Z,31.22
2022-08-07T22:50:05.091Z,31.66
2022-08-07T22:54:08.170Z,31.88
2022-08-07T22:57:00.718Z,32.06
2022-08-07T22:59:58.005Z,32.33
2022-08-07T23:03:06.173Z,32.21
2022-08-07T23:06:16.765Z,32.39
2022-08-07T23:10:04.474Z,32.78
2022-08-07T23:12:54.721Z,33.37
2022-08-07T23:16:07.028Z,33.66
2022-08-07T23:19:38.846Z,34.17
2022-08-07T23:22:47.466Z,34.46
2022-08-07T23:25:52.376Z,34.45
2022-08-07T23:29:43.632Z,34.81
2022-08-07T23:34:36.091Z,34.98
2022-08-07T23:36:29.728Z,35.20
2022-08-07T23:39:28.044Z,35.24
2022-08-07T23:42:34.277Z,35.46
2022-08-07T23:46:02.009Z,35.67
2022-08-07T23:49:03.370Z,35.97
2022-08-07T23:53:00.817Z,36.01
2022-08-07T23:55:53.349Z,35.99
2022-08-07T23:58:40.111Z,36.21
